Time;durP1;ratioP1;P1;durP2;ratioP2;P2;SDS_P1;SDS_P2;PMS_P1;PMS_P2;Temp;Humidity;BMP_temperature;BMP_pressure;BME280_temperature;BME280_humidity;BME280_pressure;Samples;Min_cycle;Max_cycle;Signal;HPM_P1;HPM_P2
2021/06/14 00:00:11;;;;;;;0.20;0.20;;;;;;;30.05;34.24;97333.25;4961186;28;20078;-34
2021/06/14 00:02:37;;;;;;;0.22;0.17;;;;;;;30.05;34.03;97333.25;4955982;28;20033;-36
2021/06/14 00:05:03;;;;;;;0.35;0.30;;;;;;;30.04;34.03;97336.81;4955449;28;20034;-36
2021/06/14 00:07:29;;;;;;;0.43;0.28;;;;;;;30.04;34.37;97336.81;4979687;28;20043;-38
2021/06/14 00:09:54;;;;;;;0.30;0.28;;;;;;;30.04;34.30;97336.81;4958370;28;20058;-34
2021/06/14 00:12:22;;;;;;;0.75;0.38;;;;;;;30.04;34.18;97336.81;4954387;28;20026;-32
2021/06/14 00:14:51;;;;;;;0.22;0.20;;;;;;;30.04;34.30;97336.81;4954225;28;20030;-33
2021/06/14 00:17:17;;;;;;;0.30;0.30;;;;;;;30.03;34.07;97338.63;4959281;28;20094;-36
2021/06/14 00:19:43;;;;;;;0.20;0.20;;;;;;;30.03;34.34;97332.50;4946487;28;20631;-35
2021/06/14 00:22:08;;;;;;;0.30;0.30;;;;;;;30.04;34.09;97339.47;4955156;28;20572;-34
2021/06/14 00:24:34;;;;;;;0.10;0.10;;;;;;;30.04;34.27;97342.09;4958613;28;20043;-35
2021/06/14 00:26:59;;;;;;;0.30;0.30;;;;;;;30.04;34.36;97335.03;4957878;28;20039;-34
2021/06/14 00:29:24;;;;;;;0.40;0.40;;;;;;;30.04;34.36;97331.53;4958980;28;20121;-37
2021/06/14 00:31:50;;;;;;;0.20;0.20;;;;;;;29.99;34.28;97324.75;4954065;28;20600;-34
2021/06/14 00:34:15;;;;;;;0.20;0.20;;;;;;;30.04;34.17;97326.25;4956306;28;20030;-33
2021/06/14 00:36:41;;;;;;;0.22;0.22;;;;;;;30.04;34.16;97323.63;4958860;28;20045;-34
2021/06/14 00:39:07;;;;;;;0.30;0.30;;;;;;;30.03;34.25;97330.72;4990560;28;20033;-34
2021/06/14 00:41:32;;;;;;;0.30;0.30;;;;;;;30.03;34.30;97327.22;4955524;28;20038;-35
2021/06/14 00:43:58;;;;;;;0.45;0.35;;;;;;;30.03;34.09;97320.13;4958865;28;20041;-33
2021/06/14 00:46:23;;;;;;;0.25;0.22;;;;;;;30.02;34.12;97310.53;4960238;28;20030;-36
2021/06/14 00:48:48;;;;;;;0.30;0.30;;;;;;;30.02;34.37;97309.66;4953049;28;20058;-36
2021/06/14 00:51:14;;;;;;;0.28;0.28;;;;;;;30.02;34.00;97309.66;4958964;28;20402;-34
2021/06/14 00:53:41;;;;;;;0.90;0.40;;;;;;;30.02;34.24;97312.31;4959877;28;20030;-33
2021/06/14 00:56:09;;;;;;;0.28;0.20;;;;;;;30.01;34.37;97307.97;4945054;28;20036;-34
2021/06/14 00:58:35;;;;;;;0.20;0.20;;;;;;;30.02;34.05;97312.31;4957477;28;20042;-36
2021/06/14 01:01:00;;;;;;;0.30;0.30;;;;;;;30.02;34.34;97307.03;4954281;28;20027;-38
2021/06/14 01:03:26;;;;;;;0.20;0.20;;;;;;;30.01;34.10;97311.44;4957513;28;20323;-35
2021/06/14 01:05:55;;;;;;;0.30;0.30;;;;;;;30.01;34.29;97314.09;4955874;28;20116;-31
2021/06/14 01:08:22;;;;;;;0.20;0.20;;;;;;;30.01;34.07;97300.88;4953987;28;20588;-35
2021/06/14 01:10:49;;;;;;;0.20;0.20;;;;;;;30.01;34.07;97310.63;4959011;28;20027;-33
2021/06/14 01:13:27;;;;;;;0.15;0.15;;;;;;;29.99;34.31;97303.59;4956505;28;20026;-31
2021/06/14 01:16:29;;;;;;;0.20;0.20;;;;;;;29.99;34.29;97298.31;4952916;28;20420;-33
2021/06/14 01:19:07;;;;;;;0.20;0.20;;;;;;;30.01;34.19;97297.41;4955026;28;20045;-33
2021/06/14 01:22:04;;;;;;;0.20;0.20;;;;;;;29.99;34.41;97286.91;4957487;28;20039;-34
2021/06/14 01:24:45;;;;;;;0.10;0.10;;;;;;;29.99;34.04;97293.03;4953094;28;20077;-35
2021/06/14 01:27:10;;;;;;;0.20;0.20;;;;;;;29.98;34.37;97291.34;4954030;28;20615;-33
2021/06/14 01:29:36;;;;;;;0.20;0.20;;;;;;;29.97;34.14;97288.78;4957926;28;20106;-34
2021/06/14 01:32:01;;;;;;;0.10;0.10;;;;;;;29.97;34.31;97289.66;4942069;28;20113;-33
2021/06/14 01:34:28;;;;;;;0.20;0.20;;;;;;;29.98;34.25;97275.50;4955785;28;20030;-35
2021/06/14 01:36:56;;;;;;;0.10;0.10;;;;;;;29.97;34.18;97276.44;4957844;28;20030;-36
2021/06/14 01:39:21;;;;;;;0.20;0.20;;;;;;;29.98;34.19;97275.50;4943332;28;20043;-32
2021/06/14 01:41:47;;;;;;;0.25;0.20;;;;;;;29.99;34.33;97276.34;4941033;28;20049;-37
2021/06/14 01:44:12;;;;;;;0.40;0.30;;;;;;;29.97;34.12;97268.50;4943037;28;20030;-33
2021/06/14 01:46:38;;;;;;;0.30;0.30;;;;;;;29.99;34.30;97271.06;4958327;28;20034;-34
2021/06/14 01:49:07;;;;;;;0.20;0.20;;;;;;;29.99;33.98;97265.78;4942312;28;20031;-37
2021/06/14 01:51:34;;;;;;;0.30;0.30;;;;;;;29.98;33.99;97264.91;4952603;28;20191;-30
2021/06/14 01:54:02;;;;;;;1.10;0.30;;;;;;;29.97;34.27;97268.50;4959188;28;20058;-30
2021/06/14 01:56:47;;;;;;;0.20;0.20;;;;;;;29.99;34.28;97265.78;4952770;28;20084;-34
2021/06/14 01:59:19;;;;;;;0.30;0.30;;;;;;;29.97;34.23;97265.88;4953991;28;20487;-35
2021/06/14 02:01:44;;;;;;;;;;;;;;;29.99;34.07;97271.06;4968660;28;20045;-35
2021/06/14 02:04:10;;;;;;;0.20;0.20;;;;;;;29.98;34.27;97270.22;4988433;28;19920;-33
2021/06/14 02:06:40;;;;;;;0.30;0.30;;;;;;;29.96;34.09;97272.13;4952779;28;20042;-35
2021/06/14 02:09:07;;;;;;;0.22;0.22;;;;;;;29.97;34.19;97268.50;4962945;28;20027;-34
2021/06/14 02:11:32;;;;;;;0.17;0.17;;;;;;;29.95;34.40;97270.38;4952701;28;20946;-34
2021/06/14 02:13:58;;;;;;;0.20;0.20;;;;;;;29.96;34.04;97279.19;4953089;28;20026;-32
2021/06/14 02:16:23;;;;;;;0.20;0.20;;;;;;;29.95;34.28;97269.56;4958627;28;20248;-34
2021/06/14 02:18:50;;;;;;;0.20;0.20;;;;;;;29.95;34.19;97275.69;4953350;28;20039;-33
2021/06/14 02:21:15;;;;;;;0.20;0.20;;;;;;;29.95;34.24;97259.81;4954201;28;20034;-34
2021/06/14 02:23:40;;;;;;;0.20;0.20;;;;;;;29.96;34.33;97260.69;4955168;28;20683;-35
2021/06/14 02:26:06;;;;;;;0.20;0.20;;;;;;;29.94;33.99;97260.78;4951095;28;20037;-34
2021/06/14 02:28:31;;;;;;;0.20;0.20;;;;;;;29.95;34.09;97265.09;4943086;28;20622;-33
2021/06/14 02:30:57;;;;;;;0.35;0.30;;;;;;;29.95;34.17;97256.34;4956331;28;20049;-36
2021/06/14 02:33:22;;;;;;;0.20;0.20;;;;;;;29.91;34.36;97255.72;4954925;28;20035;-37
2021/06/14 02:35:47;;;;;;;1.58;0.20;;;;;;;29.95;34.14;97259.81;4959156;28;20049;-35
2021/06/14 02:38:13;;;;;;;0.30;0.30;;;;;;;29.95;34.07;97265.09;4951637;28;20236;-37
2021/06/14 02:40:39;;;;;;;0.15;0.15;;;;;;;29.95;34.26;97269.56;4941784;28;20027;-36
2021/06/14 02:43:08;;;;;;;0.22;0.22;;;;;;;29.95;34.30;97265.09;4952141;28;20058;-33
2021/06/14 02:45:35;;;;;;;0.20;0.20;;;;;;;29.95;34.22;97269.56;4948155;28;20026;-33
2021/06/14 02:48:01;;;;;;;0.20;0.20;;;;;;;29.94;34.27;97263.41;4955107;28;20069;-33
2021/06/14 02:50:27;;;;;;;0.20;0.20;;;;;;;29.94;34.27;97263.41;4943136;28;20019;-32
2021/06/14 02:52:52;;;;;;;0.22;0.22;;;;;;;29.94;34.25;97258.13;4955689;28;20026;-34
2021/06/14 02:55:19;;;;;;;0.30;0.20;;;;;;;29.95;34.22;97259.81;4952788;28;20732;-31
2021/06/14 02:57:45;;;;;;;0.30;0.30;;;;;;;29.94;34.00;97247.56;4953649;28;20054;-34
2021/06/14 03:00:11;;;;;;;0.20;0.20;;;;;;;29.95;34.34;97254.53;4972228;28;20023;-32
2021/06/14 03:02:37;;;;;;;0.20;0.20;;;;;;;29.94;34.33;97255.50;4952256;28;20130;-37
2021/06/14 03:05:03;;;;;;;0.65;0.30;;;;;;;29.94;34.20;97244.09;4957860;28;20027;-33
2021/06/14 03:07:28;;;;;;;0.20;0.20;;;;;;;29.93;34.10;97253.81;4942099;28;20076;-33
2021/06/14 03:09:54;;;;;;;0.38;0.32;;;;;;;29.93;34.24;97253.81;4941044;28;20026;-32
2021/06/14 03:12:20;;;;;;;0.30;0.30;;;;;;;29.93;34.02;97256.44;4954504;28;20054;-37
2021/06/14 03:14:46;;;;;;;0.30;0.30;;;;;;;29.93;34.01;97250.28;4952363;28;20054;-35
2021/06/14 03:17:11;;;;;;;0.17;0.17;;;;;;;29.93;34.31;97253.81;4954007;28;20111;-35
2021/06/14 03:19:37;;;;;;;0.25;0.25;;;;;;;29.93;34.09;97245.88;4955526;28;20331;-31
2021/06/14 03:22:09;;;;;;;0.20;0.20;;;;;;;29.93;33.98;97239.72;4943716;28;20023;-32
2021/06/14 03:24:34;;;;;;;0.20;0.20;;;;;;;29.92;34.05;97238.91;4955830;28;20027;-29
2021/06/14 03:26:59;;;;;;;0.22;0.20;;;;;;;29.92;33.95;97232.75;4958866;28;20038;-35
2021/06/14 03:29:25;;;;;;;0.40;0.40;;;;;;;29.92;34.00;97241.53;4937792;28;20057;-32
2021/06/14 03:31:51;;;;;;;0.10;0.10;;;;;;;29.92;34.21;97244.19;4954561;28;20039;-36
2021/06/14 03:34:17;;;;;;;0.17;0.17;;;;;;;29.93;34.01;97237.94;4942589;28;20129;-34
2021/06/14 03:36:43;;;;;;;0.20;0.20;;;;;;;29.92;34.31;97233.63;4950869;28;20039;-35
2021/06/14 03:39:08;;;;;;;0.20;0.20;;;;;;;29.92;34.07;97233.63;4951729;28;20460;-34
2021/06/14 03:41:33;;;;;;;0.25;0.25;;;;;;;29.91;34.07;97239.84;4959891;28;20341;-33
2021/06/14 03:44:02;;;;;;;0.30;0.20;;;;;;;29.91;34.01;97237.22;4955685;28;20042;-35
2021/06/14 03:46:28;;;;;;;0.20;0.20;;;;;;;29.90;34.04;97230.22;4953072;28;20587;-34
2021/06/14 03:48:53;;;;;;;0.20;0.20;;;;;;;29.91;34.41;97237.22;4972202;28;20043;-32
2021/06/14 03:51:19;;;;;;;0.73;0.20;;;;;;;29.91;33.98;97231.06;4951647;28;20019;-38
2021/06/14 03:53:56;;;;;;;0.30;0.30;;;;;;;29.90;34.07;97232.84;4955202;28;20421;-36
2021/06/14 03:56:22;;;;;;;0.25;0.25;;;;;;;29.90;34.25;97230.22;4950228;28;20038;-33
2021/06/14 03:58:47;;;;;;;0.30;0.30;;;;;;;29.91;33.92;97228.44;4951139;28;21018;-32
2021/06/14 04:01:13;;;;;;;0.30;0.20;;;;;;;29.90;34.24;97230.22;4955925;28;20039;-34
2021/06/14 04:03:39;;;;;;;0.28;0.28;;;;;;;29.89;34.02;97228.53;4953621;28;20034;-34
2021/06/14 04:06:04;;;;;;;0.30;0.30;;;;;;;29.89;34.14;97233.81;4955062;28;20109;-37
2021/06/14 04:08:30;;;;;;;0.20;0.20;;;;;;;29.90;34.07;97230.22;4954050;28;20027;-35
2021/06/14 04:10:55;;;;;;;0.20;0.20;;;;;;;29.88;34.21;97226.81;4954527;28;20458;-34
2021/06/14 04:13:21;;;;;;;0.30;0.30;;;;;;;29.89;34.19;97230.28;4955728;28;20508;-33
2021/06/14 04:15:47;;;;;;;0.25;0.20;;;;;;;29.88;34.15;97221.53;4959749;28;20022;-34
2021/06/14 04:18:14;;;;;;;0.10;0.10;;;;;;;29.89;33.96;97223.22;4951030;28;20733;-34
2021/06/14 04:20:40;;;;;;;0.20;0.20;;;;;;;29.90;34.18;97213.53;4956900;28;20029;-35
2021/06/14 04:23:05;;;;;;;0.30;0.20;;;;;;;29.81;34.22;97204.38;4956044;28;20532;-34
2021/06/14 04:25:31;;;;;;;0.22;0.20;;;;;;;29.88;34.07;97216.25;4958943;28;20046;-35
2021/06/14 04:27:56;;;;;;;0.20;0.20;;;;;;;29.89;33.97;97223.22;4955408;28;20038;-35
2021/06/14 04:30:21;;;;;;;0.10;0.10;;;;;;;29.89;34.16;97212.66;4956966;28;20704;-35
2021/06/14 04:32:47;;;;;;;0.32;0.32;;;;;;;29.89;34.08;97217.94;4953579;28;20653;-35
2021/06/14 04:35:13;;;;;;;0.30;0.30;;;;;;;29.88;33.99;97216.25;4957047;28;20034;-34
2021/06/14 04:37:38;;;;;;;0.20;0.10;;;;;;;29.89;34.17;97223.22;4954300;28;20049;-35
2021/06/14 04:40:05;;;;;;;0.20;0.20;;;;;;;29.89;34.08;97223.22;4957727;28;20027;-33
2021/06/14 04:42:31;;;;;;;0.65;0.45;;;;;;;29.90;33.95;97224.09;4957471;28;20026;-31
2021/06/14 04:44:56;;;;;;;0.20;0.20;;;;;;;29.90;34.24;97218.81;4955828;28;20046;-35
2021/06/14 04:47:21;;;;;;;0.10;0.10;;;;;;;29.90;34.04;97218.81;4957059;28;20571;-34
2021/06/14 04:49:47;;;;;;;0.75;0.20;;;;;;;29.90;34.40;97222.28;4953612;28;20533;-34
2021/06/14 04:52:13;;;;;;;0.30;0.30;;;;;;;29.91;34.24;97221.34;4943858;28;20043;-35
2021/06/14 04:54:39;;;;;;;0.30;0.30;;;;;;;29.91;34.32;97216.06;4945965;28;20027;-29
2021/06/14 04:57:05;;;;;;;0.20;0.20;;;;;;;29.91;34.16;97215.22;4955492;28;20125;-33
2021/06/14 04:59:30;;;;;;;0.20;0.20;;;;;;;29.92;34.36;97216.91;4958439;28;20456;-34
2021/06/14 05:01:57;;;;;;;0.10;0.10;;;;;;;29.91;34.35;97216.06;4957704;28;20049;-34
2021/06/14 05:04:23;;;;;;;0.20;0.20;;;;;;;29.91;34.34;97210.78;4955068;28;20034;-32
2021/06/14 05:06:49;;;;;;;0.20;0.20;;;;;;;29.93;34.33;97211.53;4957658;28;20089;-37
2021/06/14 05:09:14;;;;;;;0.25;0.25;;;;;;;29.93;34.41;97200.97;4953590;28;20232;-34
2021/06/14 05:11:40;;;;;;;0.20;0.20;;;;;;;29.92;34.33;97199.28;4956572;28;20023;-33
2021/06/14 05:14:05;;;;;;;0.22;0.20;;;;;;;29.92;34.46;97196.63;4956178;28;20035;-32
2021/06/14 05:16:30;;;;;;;0.20;0.20;;;;;;;29.92;34.46;97196.63;4956441;28;20034;-34
2021/06/14 05:18:57;;;;;;;0.20;0.20;;;;;;;29.94;34.13;97191.25;4982639;28;20027;-35
2021/06/14 05:21:22;;;;;;;0.10;0.10;;;;;;;29.93;34.14;97197.44;4953649;28;20027;-35
2021/06/14 05:23:47;;;;;;;0.55;0.30;;;;;;;29.93;34.17;97187.75;4955556;28;20057;-36
2021/06/14 05:26:13;;;;;;;0.40;0.40;;;;;;;29.90;34.68;97198.50;4955462;28;20124;-34
2021/06/14 05:28:38;;;;;;;0.10;0.10;;;;;;;29.92;34.39;97193.97;4951933;28;20030;-36
2021/06/14 05:31:04;;;;;;;0.20;0.20;;;;;;;29.92;34.20;97204.56;4953995;28;20042;-37
2021/06/14 05:33:29;;;;;;;0.20;0.20;;;;;;;29.93;34.34;97198.31;4961028;28;20038;-32
2021/06/14 05:36:55;;;;;;;0.50;0.20;;;;;;;-148.56;100.00;61375.16;4955498;28;20041;-32
2021/06/14 05:40:19;;;;;;;0.20;0.20;;;;;;;-148.56;100.00;61375.16;4954360;28;20054;-33
2021/06/14 05:43:43;;;;;;;0.10;0.10;;;;;;;-148.56;100.00;61375.16;4953705;28;20118;-36
2021/06/14 05:47:07;;;;;;;0.25;0.25;;;;;;;-148.56;100.00;61375.16;4959306;28;20717;-35
2021/06/14 05:50:31;;;;;;;0.20;0.20;;;;;;;-148.56;100.00;61375.16;4985575;28;20052;-33
2021/06/14 05:53:54;;;;;;;0.10;0.10;;;;;;;-148.56;100.00;61375.16;4960998;28;20088;-35
2021/06/14 05:57:18;;;;;;;0.25;0.20;;;;;;;-148.56;100.00;61375.16;4951066;28;20037;-34
2021/06/14 06:00:43;;;;;;;0.20;0.20;;;;;;;-148.56;100.00;61375.16;4955492;28;20015;-31
2021/06/14 06:04:06;;;;;;;0.20;0.20;;;;;;;-148.56;100.00;61375.16;4954231;28;20540;-32
2021/06/14 06:07:30;;;;;;;0.17;0.10;;;;;;;-148.56;100.00;61375.16;4955850;28;20583;-35
2021/06/14 06:10:54;;;;;;;0.20;0.20;;;;;;;-148.56;100.00;61375.16;4951865;28;20035;-37
2021/06/14 06:14:18;;;;;;;0.10;0.10;;;;;;;-148.56;100.00;61375.16;4949297;28;20058;-31
2021/06/14 06:17:42;;;;;;;0.10;0.10;;;;;;;-148.56;100.00;61375.16;4983124;28;20529;-37
2021/06/14 06:21:06;;;;;;;0.10;0.10;;;;;;;-148.56;100.00;61375.16;4957108;28;20112;-31
2021/06/14 06:24:30;;;;;;;0.28;0.17;;;;;;;-148.56;100.00;61375.16;4953744;28;20037;-34
2021/06/14 06:27:54;;;;;;;0.20;0.20;;;;;;;-148.56;100.00;61375.16;4953968;28;20030;-38
2021/06/14 06:31:19;;;;;;;0.38;0.30;;;;;;;-148.56;100.00;61375.16;4953408;28;20058;-33
2021/06/14 06:34:43;;;;;;;0.13;0.13;;;;;;;-148.56;100.00;61375.16;4970116;28;20058;-34
2021/06/14 06:38:07;;;;;;;0.20;0.20;;;;;;;-148.56;100.00;61375.16;4953038;28;20109;-35
2021/06/14 06:41:31;;;;;;;0.10;0.10;;;;;;;-148.56;100.00;61375.16;4948407;28;20923;-33
2021/06/14 06:44:55;;;;;;;0.20;0.20;;;;;;;-148.56;100.00;61375.16;4952417;28;20440;-35
2021/06/14 06:48:19;;;;;;;0.52;0.30;;;;;;;-148.56;100.00;61375.16;4957833;28;20027;-36
2021/06/14 06:51:43;;;;;;;0.30;0.30;;;;;;;-148.56;100.00;61375.16;4955791;28;20027;-34
2021/06/14 06:55:07;;;;;;;0.25;0.25;;;;;;;-148.56;100.00;61375.16;4951766;28;20034;-38
2021/06/14 06:58:31;;;;;;;0.20;0.20;;;;;;;-148.56;100.00;61375.16;4953986;28;20054;-34
2021/06/14 07:01:55;;;;;;;1.17;0.30;;;;;;;-148.56;100.00;61375.16;4954069;28;20198;-34
2021/06/14 07:05:19;;;;;;;0.20;0.20;;;;;;;-148.56;100.00;61375.16;4954144;28;20113;-35
2021/06/14 07:08:43;;;;;;;0.20;0.20;;;;;;;-148.56;100.00;61375.16;4956381;28;20037;-33
2021/06/14 07:12:07;;;;;;;0.35;0.28;;;;;;;-148.56;100.00;61375.16;4953011;28;20395;-31
2021/06/14 07:15:31;;;;;;;0.57;0.30;;;;;;;-148.56;100.00;61375.16;4951087;28;20601;-35
2021/06/14 07:18:55;;;;;;;0.20;0.20;;;;;;;-148.56;100.00;61375.16;4953453;28;20252;-35
2021/06/14 07:22:21;;;;;;;0.45;0.45;;;;;;;-148.56;100.00;61375.16;4955996;28;20037;-37
2021/06/14 07:25:45;;;;;;;0.52;0.32;;;;;;;-148.56;100.00;61375.16;4953705;28;20035;-36
2021/06/14 07:29:09;;;;;;;0.47;0.47;;;;;;;-148.56;100.00;61375.16;4949793;28;20033;-32
2021/06/14 07:32:33;;;;;;;1.42;0.63;;;;;;;-148.56;100.00;61375.16;4953269;28;20535;-35
2021/06/14 07:35:56;;;;;;;0.45;0.40;;;;;;;-148.56;100.00;61375.16;4953166;28;20038;-36
2021/06/14 07:39:23;;;;;;;1.05;0.40;;;;;;;-148.56;100.00;61375.16;4956785;28;20667;-33
2021/06/14 07:42:47;;;;;;;0.30;0.30;;;;;;;-148.56;100.00;61375.16;4988171;28;20059;-36
2021/06/14 07:46:11;;;;;;;0.47;0.38;;;;;;;-148.56;100.00;61375.16;4957146;28;20027;-32
2021/06/14 07:49:35;;;;;;;0.63;0.40;;;;;;;-148.56;100.00;61375.16;4957498;28;20042;-37
2021/06/14 07:53:00;;;;;;;0.13;0.13;;;;;;;-148.56;100.00;61375.16;4951048;28;20062;-33
2021/06/14 07:56:24;;;;;;;0.43;0.30;;;;;;;-148.56;100.00;61375.16;4958158;28;20030;-33
2021/06/14 07:59:48;;;;;;;0.95;0.52;;;;;;;-148.56;100.00;61375.16;4960117;28;20237;-34
2021/06/14 08:03:12;;;;;;;0.52;0.30;;;;;;;-148.56;100.00;61375.16;4955758;28;20825;-33
2021/06/14 08:06:36;;;;;;;0.75;0.20;;;;;;;-148.56;100.00;61375.16;4954000;28;20053;-36
2021/06/14 08:10:04;;;;;;;0.43;0.35;;;;;;;-148.56;100.00;61375.16;4955372;28;20102;-33
2021/06/14 08:13:29;;;;;;;0.30;0.30;;;;;;;-148.56;100.00;61375.16;4956524;28;20077;-37
2021/06/14 08:16:53;;;;;;;0.30;0.20;;;;;;;-148.56;100.00;61375.16;4958320;28;20034;-36
2021/06/14 08:27:45;;;;;;;0.77;0.40;;;;;;;-148.56;100.00;61375.16;4955723;28;19929;-32
2021/06/14 08:31:10;;;;;;;0.73;0.30;;;;;;;-148.56;100.00;61375.16;4963529;28;20027;-35
2021/06/14 08:34:34;;;;;;;0.20;0.20;;;;;;;-148.56;100.00;61375.16;4960066;28;20126;-32
2021/06/14 08:37:58;;;;;;;0.30;0.30;;;;;;;-148.56;100.00;61375.16;4956037;28;20034;-36
2021/06/14 08:41:24;;;;;;;1.27;0.30;;;;;;;-148.56;100.00;61375.16;4962182;28;20513;-35
2021/06/14 08:44:48;;;;;;;0.20;0.20;;;;;;;-148.56;100.00;61375.16;4956444;28;20037;-36
2021/06/14 08:48:12;;;;;;;0.35;0.32;;;;;;;-148.56;100.00;61375.16;4953017;28;20072;-33
2021/06/14 08:51:36;;;;;;;0.20;0.20;;;;;;;-148.56;100.00;61375.16;4942181;28;20126;-33
2021/06/14 08:55:00;;;;;;;0.40;0.30;;;;;;;-148.56;100.00;61375.16;4956687;28;20026;-33
2021/06/14 08:58:25;;;;;;;0.25;0.20;;;;;;;-148.56;100.00;61375.16;4985756;28;20065;-37
2021/06/14 09:01:49;;;;;;;0.30;0.30;;;;;;;-148.56;100.00;61375.16;4985921;28;20035;-35
2021/06/14 09:05:16;;;;;;;0.45;0.30;;;;;;;-148.56;100.00;61375.16;4950332;28;20055;-35
2021/06/14 09:08:40;;;;;;;0.28;0.20;;;;;;;-148.56;100.00;61375.16;4952785;28;20521;-30
2021/06/14 09:12:07;;;;;;;0.28;0.28;;;;;;;-148.56;100.00;61375.16;4957330;28;20050;-35
2021/06/14 09:15:36;;;;;;;0.30;0.20;;;;;;;-148.56;100.00;61375.16;4955742;28;20217;-30
2021/06/14 09:19:00;;;;;;;0.90;0.20;;;;;;;-148.56;100.00;61375.16;4952957;28;20122;-36
2021/06/14 09:22:25;;;;;;;0.20;0.20;;;;;;;-148.56;100.00;61375.16;4971567;28;20089;-34
2021/06/14 09:25:52;;;;;;;0.25;0.25;;;;;;;-148.56;100.00;61375.16;4956954;28;20441;-37
2021/06/14 09:29:20;;;;;;;0.30;0.30;;;;;;;-148.56;100.00;61375.16;4959091;28;20038;-34
2021/06/14 09:32:53;;;;;;;0.30;0.30;;;;;;;-148.56;100.00;61375.16;4954071;28;20047;-36
2021/06/14 09:36:19;;;;;;;0.30;0.30;;;;;;;-148.56;100.00;61375.16;4959093;28;20077;-31
2021/06/14 09:39:43;;;;;;;0.38;0.20;;;;;;;-148.56;100.00;61375.16;4946320;28;20401;-33
2021/06/14 09:43:33;;;;;;;0.43;0.32;;;;;;;-148.56;100.00;61375.16;4959667;28;20161;-35
2021/06/14 09:47:05;;;;;;;0.30;0.30;;;;;;;-148.56;100.00;61375.16;4957077;28;20031;-37
2021/06/14 09:50:29;;;;;;;0.30;0.30;;;;;;;-148.56;100.00;61375.16;4954655;28;20386;-33
2021/06/14 09:54:06;;;;;;;0.32;0.32;;;;;;;-148.56;100.00;61375.16;4955840;28;20599;-33
2021/06/14 09:57:31;;;;;;;0.30;0.30;;;;;;;-148.56;100.00;61375.16;4950799;28;20038;-32
2021/06/14 10:01:24;;;;;;;0.43;0.30;;;;;;;-148.56;100.00;61375.16;4956561;28;20029;-33
2021/06/14 10:04:49;;;;;;;0.40;0.30;;;;;;;-148.56;100.00;61375.16;4953290;28;21076;-35
2021/06/14 10:08:22;;;;;;;0.20;0.20;;;;;;;-148.56;100.00;61375.16;4956798;28;20122;-33
2021/06/14 10:11:46;;;;;;;0.30;0.30;;;;;;;-148.56;100.00;61375.16;4951130;28;20037;-34
2021/06/14 10:15:10;;;;;;;0.20;0.20;;;;;;;-148.56;100.00;61375.16;4953530;28;20068;-34
2021/06/14 10:18:36;;;;;;;0.55;0.30;;;;;;;-148.56;100.00;61375.16;4954882;28;20161;-38
2021/06/14 10:22:01;;;;;;;0.20;0.20;;;;;;;-148.56;100.00;61375.16;4954573;28;20025;-30
2021/06/14 10:25:25;;;;;;;0.70;0.40;;;;;;;-148.56;100.00;61375.16;4955651;28;20185;-36
2021/06/14 10:28:49;;;;;;;0.22;0.20;;;;;;;-148.56;100.00;61375.16;4952669;28;20641;-33
2021/06/14 10:32:13;;;;;;;0.30;0.30;;;;;;;-148.56;100.00;61375.16;4947070;28;20106;-32
2021/06/14 10:35:37;;;;;;;0.40;0.20;;;;;;;-148.56;100.00;61375.16;4954049;28;20105;-33
2021/06/14 10:39:04;;;;;;;0.57;0.35;;;;;;;-148.56;100.00;61375.16;4984578;28;20128;-37
2021/06/14 10:42:28;;;;;;;0.20;0.20;;;;;;;-148.56;100.00;61375.16;4955932;28;20022;-34
2021/06/14 10:45:53;;;;;;;0.52;0.43;;;;;;;-148.56;100.00;61375.16;4956024;28;20125;-33
2021/06/14 10:49:21;;;;;;;0.20;0.20;;;;;;;-148.56;100.00;61375.16;4971338;28;20133;-33
2021/06/14 10:52:55;;;;;;;0.50;0.20;;;;;;;-148.56;100.00;61375.16;4952473;28;21022;-34
2021/06/14 10:56:23;;;;;;;1.02;0.30;;;;;;;-148.56;100.00;61375.16;4955292;28;20035;-37
2021/06/14 10:59:53;;;;;;;0.20;0.20;;;;;;;-148.56;100.00;61375.16;4948006;28;20470;-36
2021/06/14 11:03:17;;;;;;;0.43;0.30;;;;;;;-148.56;100.00;61375.16;4952595;28;20049;-32
2021/06/14 11:05:57;;;;;;;0.20;0.20;;;;;;;-148.56;100.00;61375.16;4955286;28;20113;-36
2021/06/14 11:08:23;;;;;;;0.40;0.30;;;;;;;30.25;34.55;97047.38;4952840;28;20039;-30
2021/06/14 11:11:09;;;;;;;0.20;0.20;;;;;;;30.25;34.60;97042.09;4955469;28;20101;-32
2021/06/14 11:13:34;;;;;;;0.20;0.20;;;;;;;30.28;34.75;97037.56;4952562;28;20054;-38
2021/06/14 11:16:01;;;;;;;0.20;0.20;;;;;;;30.29;34.41;97040.09;4960427;28;20027;-35
2021/06/14 11:18:31;;;;;;;0.47;0.20;;;;;;;30.31;34.77;97045.25;4953175;28;20306;-35
2021/06/14 11:21:07;;;;;;;0.25;0.25;;;;;;;30.31;34.36;97037.31;4959434;28;20592;-29
2021/06/14 11:23:32;;;;;;;0.20;0.20;;;;;;;30.31;34.42;97032.03;4957801;28;20647;-31
2021/06/14 11:25:58;;;;;;;0.30;0.17;;;;;;;30.33;34.40;97036.28;4960856;28;20114;-34
2021/06/14 11:28:32;;;;;;;0.45;0.22;;;;;;;30.34;34.56;97037.13;4961069;28;20620;-32
2021/06/14 11:30:57;;;;;;;0.30;0.30;;;;;;;30.35;34.68;97028.22;4957751;28;20035;-36
2021/06/14 11:33:24;;;;;;;0.13;0.13;;;;;;;30.36;34.75;97020.19;4955665;28;20065;-35
2021/06/14 11:35:50;;;;;;;0.20;0.20;;;;;;;30.38;34.46;97022.75;4960344;28;20041;-29
2021/06/14 11:38:20;;;;;;;0.20;0.20;;;;;;;30.37;34.30;97013.97;4956417;28;20034;-35
2021/06/14 11:40:54;;;;;;;0.20;0.20;;;;;;;30.39;34.38;97008.56;4955264;28;20046;-36
2021/06/14 11:43:20;;;;;;;0.25;0.25;;;;;;;30.39;34.67;97003.28;4955353;28;20280;-34
2021/06/14 11:45:46;;;;;;;0.38;0.32;;;;;;;30.41;34.29;97006.69;4956840;28;20038;-36
2021/06/14 11:48:24;;;;;;;0.25;0.25;;;;;;;30.42;34.63;96999.56;4958403;28;20300;-34
2021/06/14 11:51:06;;;;;;;0.30;0.20;;;;;;;30.42;34.33;96991.66;4955909;28;20030;-35
2021/06/14 11:53:53;;;;;;;;;;;;;;;30.42;34.44;96989.00;4957525;28;20062;-33
2021/06/14 11:56:19;;;;;;;0.30;0.28;;;;;;;30.43;34.43;96994.19;4952573;28;20509;-34
2021/06/14 11:58:47;;;;;;;0.52;0.32;;;;;;;30.42;34.36;96987.22;4956903;28;20044;-32
2021/06/14 12:01:12;;;;;;;0.10;0.10;;;;;;;30.42;34.73;96984.56;4953576;28;20047;-33
2021/06/14 12:03:38;;;;;;;0.20;0.20;;;;;;;30.44;34.46;96995.88;4953514;28;20034;-36
2021/06/14 12:06:03;;;;;;;0.30;0.30;;;;;;;30.45;34.61;96989.66;4958577;28;20101;-34
2021/06/14 12:08:29;;;;;;;0.25;0.10;;;;;;;30.45;34.59;96987.00;4957405;28;20033;-36
2021/06/14 12:10:57;;;;;;;0.20;0.20;;;;;;;30.45;34.50;96978.22;4955177;28;20597;-36
2021/06/14 12:13:22;;;;;;;0.40;0.40;;;;;;;30.45;34.31;96984.38;4960619;28;20039;-33
2021/06/14 12:15:53;;;;;;;0.30;0.20;;;;;;;30.46;34.63;96977.25;4956459;28;20031;-35
2021/06/14 12:18:19;;;;;;;0.20;0.20;;;;;;;30.46;34.50;96982.53;4956471;28;20031;-33
2021/06/14 12:21:02;;;;;;;0.30;0.30;;;;;;;30.46;34.34;96991.34;4957000;28;20816;-34
2021/06/14 12:23:38;;;;;;;0.20;0.20;;;;;;;30.47;34.28;96982.44;4956391;28;20016;-32
2021/06/14 12:26:05;;;;;;;0.30;0.30;;;;;;;30.48;34.56;96981.50;4945846;28;20084;-36
2021/06/14 12:28:32;;;;;;;0.25;0.20;;;;;;;30.48;34.37;96973.56;4952512;28;20947;-31
2021/06/14 12:31:02;;;;;;;0.22;0.20;;;;;;;30.48;34.78;96965.63;4958789;28;20311;-32
2021/06/14 12:33:29;;;;;;;0.20;0.20;;;;;;;30.48;34.87;96965.63;4957715;28;20185;-30
2021/06/14 12:35:55;;;;;;;0.30;0.30;;;;;;;30.47;34.50;96958.66;4941442;28;20027;-35
2021/06/14 12:38:20;;;;;;;0.20;0.20;;;;;;;30.48;34.75;96960.34;4954021;28;20033;-37
2021/06/14 12:40:46;;;;;;;0.20;0.20;;;;;;;30.50;34.71;96960.22;4961825;28;20730;-31
2021/06/14 12:43:12;;;;;;;0.30;0.30;;;;;;;30.50;34.44;96955.78;4957049;28;20062;-34
2021/06/14 12:45:38;;;;;;;0.20;0.20;;;;;;;30.51;34.40;96943.41;4955781;28;20039;-36
2021/06/14 12:48:12;;;;;;;0.20;0.20;;;;;;;30.51;34.11;96953.97;4955055;28;20026;-35
2021/06/14 12:50:49;;;;;;;0.35;0.15;;;;;;;30.51;34.58;96944.25;4955988;28;20086;-34
2021/06/14 12:53:17;;;;;;;0.20;0.20;;;;;;;30.52;34.64;96950.41;4956495;28;20645;-34
2021/06/14 12:55:44;;;;;;;0.75;0.20;;;;;;;30.51;34.53;96946.91;4955722;28;20109;-32
2021/06/14 12:58:11;;;;;;;0.30;0.30;;;;;;;30.52;34.22;96948.59;4954349;28;20050;-36
2021/06/14 13:00:40;;;;;;;0.20;0.20;;;;;;;30.51;34.52;96944.25;4955770;28;20034;-31
2021/06/14 13:03:06;;;;;;;0.20;0.20;;;;;;;30.51;34.58;96938.97;4941427;28;20515;-35
2021/06/14 13:05:36;;;;;;;0.32;0.20;;;;;;;30.54;34.44;96935.25;4957091;28;20038;-32